Current Weather

Abu Simbel

Abu Simbel, Egypt (HEBL)

Report from: Friday, April 19, 2024 9:00 AM UTC
Current time: Friday, April 19, 2024 9:39 AM UTC

Nearby weather – Weather history – Daily summaries
Weather forecast

Present weatherSand
Temperature31.0°C (87.8°F)
Heat index29.4°C (84.9°F)
Dew point9.0°C (48.2°F)
Winds 11 kts (5.7 m/s, 12.7 mph) East (80°)
Visibility1.2 mi. (2 km)
Altimeter29.88 in.Hg (1012 mB)
Relative humidity26 %
Density altitude2,038 ft. (621 m)
Remarks No significant changes expected in the next two hours
Flight conditions Instrument Meteorological Conditions
Raw dataHEBL 190900Z 08011KT 2000 SA NSC 31/09 Q1012 NOSIG
An error has occurred. This application may no longer respond until reloaded. Reload 🗙